Time;durP1;ratioP1;P1;durP2;ratioP2;P2;SDS_P1;SDS_P2;PMS_P1;PMS_P2;Temp;Humidity;BMP_temperature;BMP_pressure;BME280_temperature;BME280_humidity;BME280_pressure;Samples;Min_cycle;Max_cycle;Signal;HPM_P1;HPM_P2
2023/09/11 00:01:33;;;;;;;0.10;0.10;;;;;;;19.67;45.18;101458.78;5010111;28;20870;-84
2023/09/11 00:04:02;;;;;;;0.10;0.10;;;;;;;19.72;45.04;101458.16;5009265;28;20394;-85
2023/09/11 00:06:27;;;;;;;0.10;0.10;;;;;;;19.77;44.71;101455.66;5009605;28;20385;-85
2023/09/11 00:08:53;;;;;;;0.10;0.10;;;;;;;19.75;44.63;101447.81;5009073;28;20546;-84
2023/09/11 00:11:19;;;;;;;0.20;0.20;;;;;;;19.79;44.62;101456.28;5009695;28;20398;-84
2023/09/11 00:13:44;;;;;;;0.10;0.10;;;;;;;19.74;44.76;101450.72;5010875;28;20403;-84
2023/09/11 00:16:11;;;;;;;0.10;0.10;;;;;;;19.66;45.02;101466.03;5010732;28;20376;-84
2023/09/11 00:18:38;;;;;;;0.20;0.20;;;;;;;19.57;45.24;101448.50;5009498;28;20424;-84
2023/09/11 00:21:03;;;;;;;0.13;0.13;;;;;;;19.43;45.92;101449.56;5010702;28;20463;-86
2023/09/11 00:23:32;;;;;;;0.10;0.10;;;;;;;19.36;46.04;101454.94;5009410;28;21120;-84
2023/09/11 00:25:57;;;;;;;0.10;0.10;;;;;;;19.33;46.13;101454.53;5010971;28;20388;-86
2023/09/11 00:28:23;;;;;;;0.40;0.40;;;;;;;19.16;46.93;101454.97;5010571;28;20400;-86
2023/09/11 00:30:48;;;;;;;0.10;0.10;;;;;;;19.04;47.36;101454.78;5009774;28;20399;-87
2023/09/11 00:33:14;;;;;;;0.10;0.10;;;;;;;18.85;48.19;101459.13;5009964;28;20388;-86
2023/09/11 00:35:43;;;;;;;0.13;0.13;;;;;;;18.83;47.79;101453.13;5009661;28;20494;-86
2023/09/11 00:38:09;;;;;;;0.10;0.10;;;;;;;18.82;47.81;101445.28;4993619;28;20487;-86
2023/09/11 00:40:34;;;;;;;0.20;0.20;;;;;;;18.69;48.18;101440.69;5011759;28;20475;-85
2023/09/11 00:43:00;;;;;;;0.10;0.10;;;;;;;18.66;48.21;101454.56;5009405;28;20575;-85
2023/09/11 00:45:26;;;;;;;0.20;0.20;;;;;;;18.57;48.37;101445.03;5010856;28;20454;-85
2023/09/11 00:47:51;;;;;;;0.20;0.20;;;;;;;18.58;48.53;101452.88;5009065;28;20395;-87
2023/09/11 00:50:17;;;;;;;0.10;0.10;;;;;;;18.52;48.38;101454.53;5011356;28;20388;-87
2023/09/11 00:52:44;;;;;;;0.30;0.30;;;;;;;18.57;48.19;101456.59;5010097;28;20818;-87
2023/09/11 00:55:10;;;;;;;0.30;0.30;;;;;;;18.55;48.34;101453.31;5013198;28;20469;-88
2023/09/11 00:57:36;;;;;;;0.10;0.10;;;;;;;18.66;47.87;101446.50;5021557;28;20423;-87
2023/09/11 01:00:04;;;;;;;0.10;0.10;;;;;;;18.75;47.41;101452.50;5026568;28;20407;-86
2023/09/11 01:02:30;;;;;;;0.10;0.10;;;;;;;18.84;46.98;101452.09;5009790;28;20493;-86
2023/09/11 01:04:56;;;;;;;0.10;0.10;;;;;;;18.85;46.82;101452.91;5024447;28;20388;-84
2023/09/11 01:07:21;;;;;;;0.10;0.10;;;;;;;18.68;47.37;101441.75;5022487;28;20411;-85
2023/09/11 01:09:47;;;;;;;0.10;0.10;;;;;;;18.74;47.50;101451.66;5020255;28;20402;-84
2023/09/11 01:12:18;;;;;;;0.10;0.10;;;;;;;18.48;47.96;101450.59;5000396;28;20390;-83
2023/09/11 01:14:53;;;;;;;0.20;0.20;;;;;;;18.49;48.03;101451.41;4994900;28;20394;-82
2023/09/11 01:17:42;;;;;;;1.20;0.50;;;;;;;18.51;47.74;101452.03;5008853;28;20413;-82
2023/09/11 01:20:49;;;;;;;0.10;0.10;;;;;;;18.59;47.29;101449.16;4995009;28;20434;-82
2023/09/11 01:23:35;;;;;;;0.13;0.13;;;;;;;18.62;47.22;101450.59;4934424;29;20515;-82
2023/09/11 01:26:25;;;;;;;0.10;0.10;;;;;;;18.52;47.49;101457.19;4958115;28;20706;-84
2023/09/11 01:29:26;;;;;;;0.10;0.10;;;;;;;18.38;47.77;101460.91;4996690;28;20390;-83
2023/09/11 01:31:55;;;;;;;0.10;0.10;;;;;;;18.32;47.94;101461.72;4940432;29;20398;-83
2023/09/11 01:34:22;;;;;;;0.10;0.10;;;;;;;18.32;48.11;101462.53;4983704;28;20510;-83
2023/09/11 01:36:49;;;;;;;0.13;0.13;;;;;;;18.24;48.39;101469.94;5002440;28;20812;-87
2023/09/11 01:39:15;;;;;;;0.20;0.20;;;;;;;18.17;48.80;101472.63;4984773;28;20404;-85
2023/09/11 01:41:46;;;;;;;0.20;0.20;;;;;;;18.12;48.61;101465.16;4981671;28;20404;-84
2023/09/11 01:44:26;;;;;;;0.10;0.10;;;;;;;18.24;48.32;101475.31;4966737;28;20490;-85
2023/09/11 01:46:54;;;;;;;0.30;0.30;;;;;;;18.31;48.12;101478.84;4974869;28;20496;-85
2023/09/11 01:49:25;;;;;;;0.20;0.20;;;;;;;18.20;48.39;101476.75;4990343;28;20405;-84
2023/09/11 01:51:53;;;;;;;0.10;0.10;;;;;;;18.06;48.88;101476.72;4971416;28;20467;-83
2023/09/11 01:54:20;;;;;;;0.20;0.20;;;;;;;18.09;48.70;101472.78;4968433;28;20494;-84
2023/09/11 01:56:45;;;;;;;0.10;0.10;;;;;;;18.10;48.51;101467.22;4958419;28;20953;-83
2023/09/11 01:59:15;;;;;;;0.30;0.30;;;;;;;18.03;48.83;101476.28;4974770;28;20884;-83
2023/09/11 02:01:41;;;;;;;0.10;0.10;;;;;;;17.99;48.78;101467.81;4989974;28;20405;-83
2023/09/11 02:04:09;;;;;;;0.28;0.28;;;;;;;18.06;48.49;101471.34;4974501;28;20475;-84
2023/09/11 02:06:36;;;;;;;0.20;0.20;;;;;;;17.99;48.63;101470.50;4973449;28;20418;-83
2023/09/11 02:09:02;;;;;;;0.38;0.38;;;;;;;17.74;49.40;101473.66;4989343;28;20386;-82
2023/09/11 02:11:28;;;;;;;0.43;0.43;;;;;;;17.73;49.68;101482.72;4974164;28;20392;-83
2023/09/11 02:13:54;;;;;;;0.50;0.40;;;;;;;17.77;49.44;101483.16;4975065;28;20397;-82
2023/09/11 02:16:20;;;;;;;0.77;0.50;;;;;;;17.94;48.94;101481.00;4959348;28;20405;-84
2023/09/11 02:18:47;;;;;;;0.50;0.40;;;;;;;17.93;48.95;101482.03;4981923;28;20400;-83
2023/09/11 02:21:13;;;;;;;0.60;0.40;;;;;;;17.85;49.20;101484.84;4936401;29;20954;-82
2023/09/11 02:23:41;;;;;;;0.55;0.47;;;;;;;17.94;48.71;101481.81;4958672;29;20445;-85
2023/09/11 02:26:07;;;;;;;0.30;0.30;;;;;;;17.99;48.64;101488.44;4945496;29;20404;-85
2023/09/11 02:28:35;;;;;;;0.50;0.50;;;;;;;17.89;49.05;101472.72;4954388;29;20501;-84
2023/09/11 02:31:02;;;;;;;0.20;0.20;;;;;;;17.81;49.34;101484.44;4952060;29;20405;-83
2023/09/11 02:33:28;;;;;;;0.20;0.20;;;;;;;17.88;49.10;101482.63;4951974;29;20389;-83
2023/09/11 02:35:57;;;;;;;0.25;0.25;;;;;;;17.84;49.23;101483.19;4920169;29;20967;-85
2023/09/11 02:38:23;;;;;;;0.52;0.52;;;;;;;17.76;49.44;101484.19;4951717;28;20476;-85
2023/09/11 02:40:51;;;;;;;0.40;0.40;;;;;;;17.77;49.40;101491.19;4951802;28;20393;-85
2023/09/11 02:43:17;;;;;;;0.60;0.60;;;;;;;17.77;49.32;101480.47;4920061;29;20457;-84
2023/09/11 02:45:43;;;;;;;0.67;0.47;;;;;;;17.78;49.54;101487.50;4935608;29;20389;-85
2023/09/11 02:48:10;;;;;;;0.30;0.30;;;;;;;17.68;49.98;101484.34;4952103;29;20400;-83
2023/09/11 02:50:38;;;;;;;0.20;0.20;;;;;;;17.66;49.97;101486.41;4951352;29;20474;-84
2023/09/11 02:53:13;;;;;;;0.20;0.20;;;;;;;17.69;50.05;101492.19;5004026;28;20470;-85
2023/09/11 02:55:39;;;;;;;0.55;0.45;;;;;;;17.69;50.01;101486.00;5009666;28;20986;-85
2023/09/11 02:58:07;;;;;;;0.25;0.25;;;;;;;17.69;49.84;101486.00;5009828;28;20426;-85
2023/09/11 03:00:35;;;;;;;0.30;0.20;;;;;;;17.69;50.09;101486.00;5009901;28;20403;-86
2023/09/11 03:06:05;;;;;;;0.10;0.10;;;;;;;17.55;50.66;101491.28;5009986;28;20791;-85
2023/09/11 03:08:35;;;;;;;0.30;0.30;;;;;;;17.43;50.94;101478.63;5012526;28;20492;-84
2023/09/11 03:11:09;;;;;;;0.30;0.30;;;;;;;17.42;50.91;101483.16;5029489;28;20418;-87
2023/09/11 03:13:35;;;;;;;2.60;1.00;;;;;;;17.46;50.58;101489.78;5029529;28;20812;-87
2023/09/11 03:16:13;;;;;;;0.10;0.10;;;;;;;17.49;50.61;101481.34;5029477;28;20452;-86
2023/09/11 03:18:40;;;;;;;0.20;0.20;;;;;;;17.39;50.83;101491.59;5029143;28;20447;-86
2023/09/11 03:21:09;;;;;;;0.45;0.45;;;;;;;17.30;51.55;101493.59;5012838;28;20403;-85
2023/09/11 03:23:35;;;;;;;0.40;0.40;;;;;;;17.23;51.78;101492.72;5009177;28;20875;-85
2023/09/11 03:26:02;;;;;;;0.40;0.32;;;;;;;17.14;51.85;101486.69;5009537;28;20384;-84
2023/09/11 03:28:30;;;;;;;0.28;0.28;;;;;;;17.20;51.70;101488.59;5009562;28;20475;-84
2023/09/11 03:31:02;;;;;;;0.25;0.25;;;;;;;17.26;51.12;101489.66;5010760;28;20385;-84
2023/09/11 03:33:29;;;;;;;0.15;0.15;;;;;;;17.26;51.04;101489.66;5022193;28;20390;-85
2023/09/11 03:35:54;;;;;;;0.40;0.40;;;;;;;17.24;51.20;101490.88;5000921;28;20471;-86
2023/09/11 03:38:21;;;;;;;0.20;0.20;;;;;;;17.09;51.78;101494.47;5014358;28;20408;-86
2023/09/11 03:40:50;;;;;;;0.20;0.20;;;;;;;17.05;51.75;101492.38;4996562;28;20906;-86
2023/09/11 03:43:16;;;;;;;0.20;0.20;;;;;;;17.13;51.53;101501.09;5014280;28;20953;-85
2023/09/11 03:45:42;;;;;;;0.20;0.20;;;;;;;17.17;51.25;101488.16;4996894;28;20404;-86
2023/09/11 03:48:08;;;;;;;0.10;0.10;;;;;;;17.11;51.55;101488.94;4979789;28;20396;-86
2023/09/11 03:50:34;;;;;;;0.10;0.10;;;;;;;17.12;51.77;101498.63;4990646;28;20404;-86
2023/09/11 03:52:59;;;;;;;0.20;0.20;;;;;;;17.10;51.93;101496.13;4989886;28;20401;-86
2023/09/11 03:55:25;;;;;;;0.30;0.30;;;;;;;16.99;52.39;101497.47;4973326;28;20398;-85
2023/09/11 03:57:52;;;;;;;0.70;0.70;;;;;;;16.98;52.28;101498.50;4990120;28;20409;-86
2023/09/11 04:00:18;;;;;;;0.10;0.10;;;;;;;16.98;52.04;101500.38;4972704;28;20953;-86
2023/09/11 04:02:45;;;;;;;0.32;0.32;;;;;;;17.07;52.04;101507.25;4973147;28;20390;-86
2023/09/11 04:05:14;;;;;;;0.32;0.32;;;;;;;17.15;51.64;101501.72;4989308;28;20775;-86
2023/09/11 04:07:40;;;;;;;0.28;0.28;;;;;;;17.24;51.25;101501.59;4972243;28;20502;-86
2023/09/11 04:10:07;;;;;;;0.23;0.23;;;;;;;17.20;51.34;101498.47;4973240;28;20498;-86
2023/09/11 04:12:33;;;;;;;0.20;0.20;;;;;;;17.24;51.22;101497.06;4949267;29;20415;-83
2023/09/11 04:15:00;;;;;;;0.20;0.20;;;;;;;17.25;51.10;101501.41;4933857;29;20397;-85
2023/09/11 04:17:29;;;;;;;0.30;0.30;;;;;;;17.27;51.09;101498.50;4934871;29;20417;-85
2023/09/11 04:19:57;;;;;;;0.20;0.20;;;;;;;17.28;51.25;101503.69;4934507;29;20958;-85
2023/09/11 04:22:27;;;;;;;0.32;0.32;;;;;;;17.28;50.98;101498.31;4967346;28;20838;-86
2023/09/11 04:24:53;;;;;;;0.22;0.22;;;;;;;17.35;50.98;101490.34;4970549;28;20478;-86
2023/09/11 04:27:21;;;;;;;0.20;0.20;;;;;;;17.44;50.68;101496.38;4969402;28;20479;-85
2023/09/11 04:29:47;;;;;;;0.17;0.17;;;;;;;17.37;50.91;101499.00;4937688;28;20471;-86
2023/09/11 04:32:17;;;;;;;0.20;0.20;;;;;;;17.37;51.30;101499.81;4953071;28;20479;-85
2023/09/11 04:34:45;;;;;;;0.60;0.60;;;;;;;17.34;51.52;101508.28;4969565;28;20403;-84
2023/09/11 04:37:11;;;;;;;1.02;0.63;;;;;;;17.34;51.74;101515.47;4969515;28;20411;-84
2023/09/11 04:39:38;;;;;;;0.40;0.40;;;;;;;17.31;51.75;101516.69;4970175;28;20471;-83
2023/09/11 04:42:06;;;;;;;0.43;0.43;;;;;;;17.29;51.92;101510.72;4969690;28;20553;-85
2023/09/11 04:44:32;;;;;;;0.30;0.30;;;;;;;17.34;52.10;101527.03;4987461;28;20426;-85
2023/09/11 04:46:58;;;;;;;0.25;0.25;;;;;;;17.29;52.13;101517.94;4991190;28;20503;-85
2023/09/11 04:49:23;;;;;;;0.40;0.40;;;;;;;17.36;52.17;101526.84;4973827;28;20405;-84
2023/09/11 04:51:49;;;;;;;0.40;0.40;;;;;;;17.42;51.88;101519.88;4988824;28;20469;-81
2023/09/11 04:54:15;;;;;;;0.65;0.35;;;;;;;17.53;51.59;101530.03;4988660;28;20405;-84
2023/09/11 04:56:40;;;;;;;0.20;0.20;;;;;;;17.56;52.08;101526.97;4972602;28;20386;-85
2023/09/11 04:59:06;;;;;;;0.80;0.80;;;;;;;17.58;51.71;101531.09;5002799;28;20406;-84
2023/09/11 05:01:32;;;;;;;0.40;0.40;;;;;;;17.56;52.16;101537.69;4990476;28;20896;-85
2023/09/11 05:03:57;;;;;;;2.40;1.10;;;;;;;17.48;52.31;101532.47;4989776;28;20480;-83
2023/09/11 05:06:23;;;;;;;0.30;0.30;;;;;;;17.54;52.31;101537.91;4991916;28;20386;-83
2023/09/11 05:08:51;;;;;;;0.30;0.20;;;;;;;17.66;51.96;101537.34;4991310;28;20397;-82
2023/09/11 05:11:17;;;;;;;0.40;0.40;;;;;;;17.62;52.19;101544.13;4991357;28;20422;-82
2023/09/11 05:13:44;;;;;;;0.20;0.20;;;;;;;17.82;51.65;101536.19;5006578;28;20632;-82
2023/09/11 05:16:17;;;;;;;0.30;0.30;;;;;;;18.01;51.18;101532.00;5027255;28;20400;-84
2023/09/11 05:18:43;;;;;;;0.10;0.10;;;;;;;18.19;50.54;101536.84;5008620;28;20799;-83
2023/09/11 05:21:10;;;;;;;0.20;0.20;;;;;;;18.35;50.40;101539.16;4995657;28;20978;-87
2023/09/11 05:23:36;;;;;;;0.15;0.10;;;;;;;18.48;49.86;101536.50;5013038;28;20456;-83
2023/09/11 05:26:03;;;;;;;0.30;0.30;;;;;;;18.57;49.88;101537.16;5029315;28;20403;-83
2023/09/11 05:28:29;;;;;;;0.20;0.20;;;;;;;18.54;50.07;101538.38;5026576;28;20480;-83
2023/09/11 05:30:54;;;;;;;1.50;0.60;;;;;;;18.54;49.94;101533.00;5026373;28;20394;-80
2023/09/11 05:33:20;;;;;;;0.20;0.20;;;;;;;18.64;49.97;101526.44;5013086;28;20491;-81
2023/09/11 05:35:47;;;;;;;0.20;0.20;;;;;;;18.80;49.66;101536.78;5027990;28;20387;-83
2023/09/11 05:38:13;;;;;;;0.20;0.20;;;;;;;18.86;49.65;101527.94;5031236;28;20413;-82
2023/09/11 05:40:38;;;;;;;0.20;0.20;;;;;;;18.92;49.50;101531.66;5001310;28;20391;-88
2023/09/11 05:43:04;;;;;;;0.30;0.30;;;;;;;18.82;49.69;101529.38;4973083;28;20403;-79
2023/09/11 05:45:29;;;;;;;0.15;0.15;;;;;;;18.78;49.83;101536.19;4990182;28;20396;-84
2023/09/11 05:47:55;;;;;;;0.10;0.10;;;;;;;18.91;49.75;101533.53;4975042;28;20395;-83
2023/09/11 05:50:22;;;;;;;0.20;0.20;;;;;;;19.00;49.56;101530.66;4991348;28;20387;-86
2023/09/11 05:52:47;;;;;;;0.30;0.30;;;;;;;19.21;49.42;101535.81;4993880;28;20458;-83
2023/09/11 05:55:13;;;;;;;0.32;0.32;;;;;;;19.39;49.02;101529.81;5002305;28;20927;-83
2023/09/11 05:57:40;;;;;;;0.20;0.20;;;;;;;19.45;48.70;101523.59;4992927;28;20421;-84
2023/09/11 06:00:12;;;;;;;0.40;0.40;;;;;;;19.54;48.62;101529.56;4993028;28;20397;-82
2023/09/11 06:02:40;;;;;;;0.68;0.68;;;;;;;19.59;48.46;101527.09;4975425;28;20396;-83
2023/09/11 06:05:07;;;;;;;0.25;0.20;;;;;;;19.67;48.30;101531.41;4949137;28;20559;-80
2023/09/11 06:07:32;;;;;;;0.30;0.30;;;;;;;19.76;48.17;101523.97;5010685;28;20397;-82
2023/09/11 06:09:58;;;;;;;0.40;0.40;;;;;;;19.89;47.85;101529.31;4995882;28;20389;-82
2023/09/11 06:12:23;;;;;;;0.17;0.17;;;;;;;19.91;47.87;101529.09;4994422;28;20398;-82
2023/09/11 06:14:49;;;;;;;0.20;0.20;;;;;;;20.01;47.50;101540.25;4996040;28;20389;-81
2023/09/11 06:17:14;;;;;;;0.10;0.10;;;;;;;20.11;47.15;101543.28;4994584;28;20464;-81
2023/09/11 06:19:40;;;;;;;1.20;0.80;;;;;;;20.25;46.88;101547.59;5011195;28;20415;-80
2023/09/11 06:22:05;;;;;;;0.30;0.30;;;;;;;20.33;46.61;101537.63;5011717;28;20459;-81
2023/09/11 06:24:31;;;;;;;0.50;0.30;;;;;;;20.48;46.22;101548.94;5012992;28;20387;-80
2023/09/11 06:27:07;;;;;;;0.17;0.17;;;;;;;20.45;45.92;101552.06;5013458;28;20937;-84
2023/09/11 06:29:32;;;;;;;0.20;0.20;;;;;;;20.58;45.60;101552.00;5014029;28;20975;-83
2023/09/11 06:32:01;;;;;;;0.30;0.30;;;;;;;20.75;45.36;101544.25;5012694;28;20407;-83
2023/09/11 06:34:29;;;;;;;0.53;0.53;;;;;;;20.92;44.66;101547.25;5013571;28;20415;-82
2023/09/11 06:36:56;;;;;;;0.10;0.10;;;;;;;20.90;44.02;101545.81;4998335;28;21005;-83
2023/09/11 06:39:22;;;;;;;0.30;0.30;;;;;;;20.97;43.55;101546.59;5017116;28;20400;-84
2023/09/11 06:41:48;;;;;;;0.20;0.20;;;;;;;21.05;43.67;101549.03;5012485;28;20391;-79
2023/09/11 06:44:13;;;;;;;0.20;0.20;;;;;;;21.19;43.35;101537.09;5013508;28;20380;-81
2023/09/11 06:46:39;;;;;;;0.10;0.10;;;;;;;21.30;43.23;101535.53;5015087;28;20384;-83
2023/09/11 06:49:04;;;;;;;1.10;0.90;;;;;;;21.44;43.13;101540.78;5011522;28;20408;-83
2023/09/11 06:51:30;;;;;;;0.20;0.20;;;;;;;21.61;43.14;101541.91;5012040;28;20403;-78
2023/09/11 06:53:55;;;;;;;0.27;0.27;;;;;;;21.74;42.89;101541.75;5013099;28;20778;-84
2023/09/11 06:56:21;;;;;;;0.20;0.20;;;;;;;21.87;42.77;101540.78;5011166;28;20384;-82
2023/09/11 06:58:46;;;;;;;0.30;0.30;;;;;;;21.91;42.29;101539.31;5012640;28;20495;-81
2023/09/11 07:01:13;;;;;;;0.40;0.30;;;;;;;21.91;42.42;101533.91;5011447;28;20392;-82
2023/09/11 07:03:39;;;;;;;0.20;0.20;;;;;;;21.93;42.17;101534.50;5013384;28;20407;-81
2023/09/11 07:06:07;;;;;;;0.20;0.20;;;;;;;21.96;42.21;101531.31;4993558;28;20415;-80
2023/09/11 07:08:33;;;;;;;1.10;0.80;;;;;;;22.19;41.99;101532.50;4991885;28;20384;-79
2023/09/11 07:11:01;;;;;;;0.20;0.20;;;;;;;22.32;41.83;101529.66;4994542;28;20494;-81
2023/09/11 07:13:27;;;;;;;0.10;0.10;;;;;;;22.39;41.69;101536.88;5011689;28;20380;-79
2023/09/11 07:16:00;;;;;;;0.20;0.20;;;;;;;22.45;41.04;101531.34;5013655;28;20388;-78
2023/09/11 07:18:26;;;;;;;0.20;0.20;;;;;;;22.61;41.13;101524.47;4994176;28;20492;-81
2023/09/11 07:20:53;;;;;;;0.40;0.40;;;;;;;22.70;41.13;101527.69;4991760;28;20398;-79
2023/09/11 07:23:22;;;;;;;0.10;0.10;;;;;;;22.76;40.73;101525.94;4992516;28;20386;-80
2023/09/11 07:25:47;;;;;;;0.10;0.10;;;;;;;22.81;40.94;101528.75;4975439;28;20394;-79
2023/09/11 07:28:14;;;;;;;0.30;0.20;;;;;;;22.95;40.65;101523.97;4992177;28;20456;-79
2023/09/11 07:30:40;;;;;;;0.28;0.28;;;;;;;22.95;40.62;101527.50;4992221;28;20818;-84
2023/09/11 07:33:05;;;;;;;0.20;0.20;;;;;;;22.99;40.77;101525.97;4990693;28;20425;-80
2023/09/11 07:35:32;;;;;;;0.20;0.20;;;;;;;23.15;40.54;101529.09;5006373;28;20420;-83
2023/09/11 07:37:58;;;;;;;0.20;0.20;;;;;;;23.22;40.14;101529.78;4990978;28;20405;-82
2023/09/11 07:40:25;;;;;;;0.67;0.47;;;;;;;23.39;39.91;101527.19;4989793;28;20429;-81
2023/09/11 07:42:54;;;;;;;0.30;0.30;;;;;;;23.39;39.91;101516.38;4993585;28;20394;-81
2023/09/11 07:45:23;;;;;;;0.10;0.10;;;;;;;23.52;39.66;101518.84;4990894;28;20389;-83
2023/09/11 07:47:49;;;;;;;0.10;0.10;;;;;;;23.66;39.57;101524.84;5005973;28;20962;-80
2023/09/11 07:50:14;;;;;;;0.10;0.10;;;;;;;23.65;39.29;101521.28;5005423;28;21032;-86
2023/09/11 07:52:40;;;;;;;0.20;0.20;;;;;;;23.62;38.86;101529.06;5003919;28;20400;-82
2023/09/11 07:55:06;;;;;;;0.30;0.30;;;;;;;23.72;38.85;101513.06;4988848;28;20433;-80
2023/09/11 07:57:34;;;;;;;0.10;0.10;;;;;;;23.84;38.45;101513.03;4991003;28;20413;-80
2023/09/11 08:00:04;;;;;;;0.28;0.28;;;;;;;23.84;38.34;101513.88;4991168;28;20386;-79
2023/09/11 08:02:31;;;;;;;0.20;0.20;;;;;;;23.87;38.30;101512.56;4991841;28;20382;-79
2023/09/11 08:04:57;;;;;;;0.10;0.10;;;;;;;23.98;38.50;101513.59;4991656;28;20393;-80
2023/09/11 08:07:25;;;;;;;0.10;0.10;;;;;;;24.15;38.27;101510.97;4991665;28;20761;-80
2023/09/11 08:09:52;;;;;;;0.20;0.20;;;;;;;24.20;38.00;101511.03;4992568;28;20533;-82
2023/09/11 08:12:18;;;;;;;0.10;0.10;;;;;;;24.22;37.51;101509.75;5007850;28;20468;-81
